Time;durP1;ratioP1;P1;durP2;ratioP2;P2;SDS_P1;SDS_P2;PMS_P1;PMS_P2;Temp;Humidity;BMP_temperature;BMP_pressure;BME280_temperature;BME280_humidity;BME280_pressure;Samples;Min_cycle;Max_cycle;Signal;HPM_P1;HPM_P2
2023/04/08 00:01:34;;;;;;;7.32;4.45;;;5.50;99.90;;;;;;5026527;28;20037;-60
2023/04/08 00:03:59;;;;;;;6.78;4.18;;;5.50;99.90;;;;;;5036824;28;20087;-61
2023/04/08 00:06:26;;;;;;;6.28;4.93;;;5.40;99.90;;;;;;5048145;28;20110;-61
2023/04/08 00:08:51;;;;;;;8.20;5.35;;;5.40;99.90;;;;;;5047869;28;20083;-61
2023/04/08 00:11:17;;;;;;;8.23;4.82;;;5.40;99.90;;;;;;5014930;28;20476;-61
2023/04/08 00:13:43;;;;;;;6.40;5.30;;;5.40;99.90;;;;;;5031423;28;20066;-61
2023/04/08 00:16:08;;;;;;;13.85;5.78;;;5.30;99.90;;;;;;5030825;28;20499;-61
2023/04/08 00:18:36;;;;;;;8.07;5.30;;;5.30;99.90;;;;;;5026133;28;20132;-61
2023/04/08 00:21:03;;;;;;;8.32;5.47;;;5.30;99.90;;;;;;5026396;28;20515;-60
2023/04/08 00:23:28;;;;;;;8.77;5.28;;;5.30;99.90;;;;;;5047687;28;20059;-61
2023/04/08 00:25:54;;;;;;;9.40;5.97;;;5.20;99.90;;;;;;5039805;28;20041;-61
2023/04/08 00:28:20;;;;;;;8.02;4.82;;;5.20;99.90;;;;;;5047516;28;20412;-61
2023/04/08 00:30:46;;;;;;;8.55;4.90;;;5.20;99.90;;;;;;5013332;28;20139;-60
2023/04/08 00:33:12;;;;;;;9.82;5.85;;;5.20;99.90;;;;;;5029560;28;20124;-60
2023/04/08 00:35:37;;;;;;;9.40;6.80;;;5.10;99.90;;;;;;5047765;28;20033;-61
2023/04/08 00:38:06;;;;;;;8.95;6.43;;;5.10;99.90;;;;;;5047718;28;20045;-61
2023/04/08 00:40:33;;;;;;;10.38;6.03;;;5.10;99.90;;;;;;5027018;28;20047;-61
2023/04/08 00:42:58;;;;;;;7.28;5.15;;;5.10;99.90;;;;;;5046424;28;20049;-60
2023/04/08 00:45:24;;;;;;;8.88;5.82;;;5.00;99.90;;;;;;5034500;28;20113;-61
2023/04/08 00:47:51;;;;;;;7.68;5.43;;;5.00;99.90;;;;;;5064371;28;20410;-60
2023/04/08 00:50:18;;;;;;;11.40;6.07;;;5.00;99.90;;;;;;5012352;28;20199;-61
2023/04/08 00:52:44;;;;;;;9.35;6.45;;;5.00;99.90;;;;;;5047666;28;20040;-61
2023/04/08 00:55:10;;;;;;;10.30;7.00;;;5.00;99.90;;;;;;5019348;28;20730;-61
2023/04/08 00:57:36;;;;;;;11.02;7.10;;;5.00;99.90;;;;;;5045477;28;20083;-61
2023/04/08 01:00:04;;;;;;;10.65;8.30;;;5.00;99.90;;;;;;5043725;28;20388;-60
2023/04/08 01:02:35;;;;;;;9.73;6.85;;;4.90;99.90;;;;;;5013596;28;20049;-61
2023/04/08 01:05:40;;;;;;;14.27;7.97;;;4.90;99.90;;;;;;5013541;28;20057;-61
2023/04/08 01:08:09;;;;;;;10.95;7.75;;;4.90;99.90;;;;;;5010078;28;20056;-61
2023/04/08 01:10:37;;;;;;;13.10;8.63;;;5.40;99.90;;;;;;5022471;28;20079;-60
2023/04/08 01:13:07;;;;;;;13.48;8.80;;;4.80;99.90;;;;;;5055773;28;20083;-61
2023/04/08 01:15:36;;;;;;;13.50;8.77;;;4.80;99.90;;;;;;5052968;28;20031;-61
2023/04/08 01:18:06;;;;;;;11.00;7.75;;;4.80;99.90;;;;;;5052245;28;20033;-61
2023/04/08 01:20:32;;;;;;;10.55;7.72;;;4.80;99.90;;;;;;5052600;28;20036;-61
2023/04/08 01:23:53;;;;;;;15.88;9.60;;;4.80;99.90;;;;;;5047627;28;20045;-61
2023/04/08 01:26:25;;;;;;;18.58;10.70;;;4.80;99.90;;;;;;5030693;28;20154;-59
2023/04/08 01:28:55;;;;;;;13.27;8.82;;;4.70;99.90;;;;;;5050880;28;20041;-61
2023/04/08 01:31:23;;;;;;;12.45;9.57;;;4.70;99.90;;;;;;5047735;28;20045;-61
2023/04/08 01:33:50;;;;;;;14.65;10.50;;;4.70;99.90;;;;;;5052105;28;20069;-61
2023/04/08 01:36:17;;;;;;;14.48;10.02;;;4.70;99.90;;;;;;5026149;28;20041;-61
2023/04/08 01:38:46;;;;;;;13.65;9.90;;;4.70;99.90;;;;;;5051411;28;20045;-61
2023/04/08 01:41:12;;;;;;;14.65;10.45;;;4.70;99.90;;;;;;5055823;28;20163;-61
2023/04/08 01:43:43;;;;;;;13.18;10.00;;;4.70;99.90;;;;;;5044606;28;20056;-60
2023/04/08 01:46:11;;;;;;;16.35;10.23;;;4.60;99.90;;;;;;5050543;28;20114;-61
2023/04/08 01:48:37;;;;;;;18.88;10.63;;;4.60;99.90;;;;;;5047387;28;20301;-61
2023/04/08 01:51:05;;;;;;;19.25;12.52;;;4.60;99.90;;;;;;5044068;28;20353;-61
2023/04/08 01:53:31;;;;;;;15.23;10.90;;;4.60;99.90;;;;;;5029907;28;20124;-61
2023/04/08 01:56:12;;;;;;;15.20;10.70;;;4.60;99.90;;;;;;5033415;28;20080;-61
2023/04/08 01:58:42;;;;;;;14.23;10.65;;;4.60;99.90;;;;;;5035740;28;20116;-60
2023/04/08 02:01:12;;;;;;;13.93;10.70;;;4.60;99.90;;;;;;5047984;28;20048;-61
2023/04/08 02:03:41;;;;;;;17.58;11.93;;;4.60;99.90;;;;;;5045068;28;20041;-60
2023/04/08 02:06:07;;;;;;;17.88;11.95;;;4.60;99.90;;;;;;5047459;28;20079;-61
2023/04/08 02:08:35;;;;;;;17.35;11.75;;;4.60;99.90;;;;;;5025458;28;20033;-60
2023/04/08 02:11:02;;;;;;;18.15;12.60;;;4.60;99.90;;;;;;5033207;28;20033;-61
2023/04/08 02:13:31;;;;;;;17.77;11.43;;;4.60;99.90;;;;;;5016537;28;20097;-60
2023/04/08 02:16:15;;;;;;;18.38;12.80;;;4.60;99.90;;;;;;5045445;28;20080;-60
2023/04/08 02:18:43;;;;;;;18.58;12.73;;;4.60;99.90;;;;;;5043801;28;20461;-60
2023/04/08 02:21:13;;;;;;;19.27;13.48;;;4.50;99.90;;;;;;5051064;28;20157;-60
2023/04/08 02:23:40;;;;;;;18.30;13.00;;;4.50;99.90;;;;;;5031229;28;20196;-60
2023/04/08 02:26:13;;;;;;;21.35;13.23;;;4.50;99.90;;;;;;5022172;28;20043;-60
2023/04/08 02:28:43;;;;;;;18.70;13.67;;;4.50;99.90;;;;;;5032716;28;20104;-61
2023/04/08 02:31:14;;;;;;;20.63;13.65;;;4.50;99.90;;;;;;5046949;28;20033;-60
2023/04/08 02:33:41;;;;;;;20.42;14.82;;;4.40;99.90;;;;;;5049156;28;20047;-60
2023/04/08 02:36:08;;;;;;;20.27;14.30;;;4.40;99.90;;;;;;5026893;28;20496;-60
2023/04/08 02:38:33;;;;;;;19.00;13.70;;;4.40;99.90;;;;;;5040171;28;20499;-60
2023/04/08 02:40:59;;;;;;;20.00;13.40;;;4.40;99.90;;;;;;5054641;28;20120;-60
2023/04/08 02:43:30;;;;;;;21.70;15.05;;;4.40;99.90;;;;;;5049743;28;20040;-60
2023/04/08 02:46:02;;;;;;;20.38;14.32;;;4.40;99.90;;;;;;5052199;28;20045;-60
2023/04/08 02:48:29;;;;;;;21.77;14.68;;;4.40;99.90;;;;;;5040880;28;20069;-60
2023/04/08 02:50:54;;;;;;;24.90;15.88;;;4.40;99.90;;;;;;5023556;28;20053;-60
2023/04/08 02:53:22;;;;;;;25.17;15.75;;;4.40;99.90;;;;;;5043515;28;20053;-60
2023/04/08 02:55:48;;;;;;;21.77;15.60;;;4.40;99.90;;;;;;5047473;28;20045;-60
2023/04/08 02:58:13;;;;;;;23.67;16.25;;;4.30;99.90;;;;;;5050835;28;20044;-61
2023/04/08 03:00:39;;;;;;;21.63;15.68;;;4.30;99.90;;;;;;5031412;28;20064;-60
2023/04/08 03:03:05;;;;;;;19.75;14.48;;;4.30;99.90;;;;;;5050232;28;20498;-60
2023/04/08 03:05:31;;;;;;;23.00;15.75;;;4.30;99.90;;;;;;5041713;28;20051;-61
2023/04/08 03:07:57;;;;;;;25.63;17.92;;;4.30;99.90;;;;;;5041342;28;20038;-60
2023/04/08 03:10:23;;;;;;;26.15;17.67;;;4.30;99.90;;;;;;5046784;28;20526;-60
2023/04/08 03:12:49;;;;;;;21.85;15.55;;;4.30;99.90;;;;;;5049025;28;20059;-60
2023/04/08 03:15:14;;;;;;;21.65;14.90;;;4.30;99.90;;;;;;5032802;28;20037;-59
2023/04/08 03:17:40;;;;;;;30.33;18.77;;;4.30;99.90;;;;;;5043791;28;20049;-60
2023/04/08 03:20:07;;;;;;;26.00;18.10;;;4.30;99.90;;;;;;5010975;28;20070;-59
2023/04/08 03:22:36;;;;;;;23.20;16.40;;;4.30;99.90;;;;;;5048044;28;20068;-61
2023/04/08 03:25:01;;;;;;;29.50;18.73;;;4.30;99.90;;;;;;5045874;28;20037;-60
2023/04/08 03:27:27;;;;;;;25.92;17.63;;;4.20;99.90;;;;;;5049674;28;20033;-60
2023/04/08 03:29:53;;;;;;;28.15;18.70;;;4.20;99.90;;;;;;5041907;28;20037;-60
2023/04/08 03:32:19;;;;;;;26.42;18.65;;;4.30;99.90;;;;;;5024252;28;20068;-61
2023/04/08 03:34:45;;;;;;;29.75;19.85;;;4.20;99.90;;;;;;5050130;28;20696;-60
2023/04/08 03:37:10;;;;;;;25.58;18.75;;;4.20;99.90;;;;;;5023477;28;20041;-61
2023/04/08 03:39:36;;;;;;;29.85;19.83;;;4.10;99.90;;;;;;5027723;28;20041;-60
2023/04/08 03:42:02;;;;;;;25.55;17.70;;;4.10;99.90;;;;;;5022371;28;20044;-60
2023/04/08 03:44:28;;;;;;;26.55;18.67;;;4.10;99.90;;;;;;5031961;28;20511;-60
2023/04/08 03:46:54;;;;;;;25.83;18.90;;;4.10;99.90;;;;;;5048241;28;20487;-61
2023/04/08 03:49:20;;;;;;;24.40;17.75;;;4.10;99.90;;;;;;5049278;28;20383;-61
2023/04/08 03:51:45;;;;;;;27.20;18.85;;;4.10;99.90;;;;;;5037198;22;20492;-51
2023/04/08 03:54:11;;;;;;;24.02;16.65;;;4.10;99.90;;;;;;5007983;28;20049;-53
2023/04/08 03:56:37;;;;;;;32.05;20.20;;;4.10;99.90;;;;;;5025973;28;20515;-55
2023/04/08 03:59:02;;;;;;;28.83;19.58;;;4.10;99.90;;;;;;5008393;28;20081;-51
2023/04/08 04:01:30;;;;;;;28.92;19.10;;;4.10;99.90;;;;;;5000344;28;20164;-54
2023/04/08 04:03:56;;;;;;;27.27;19.70;;;4.10;99.90;;;;;;5026164;28;20029;-53
2023/04/08 04:06:22;;;;;;;33.10;21.60;;;4.10;99.90;;;;;;5028273;28;20420;-56
2023/04/08 04:08:49;;;;;;;31.00;20.02;;;4.00;99.90;;;;;;4992237;28;20087;-54
2023/04/08 04:11:15;;;;;;;32.72;21.23;;;4.10;99.90;;;;;;4984274;28;20134;-52
2023/04/08 04:13:41;;;;;;;38.05;23.42;;;4.00;99.90;;;;;;5020149;28;20052;-55
2023/04/08 04:16:06;;;;;;;29.13;20.30;;;4.10;99.90;;;;;;5009480;28;20033;-55
2023/04/08 04:18:32;;;;;;;28.45;19.67;;;4.00;99.90;;;;;;5003183;28;20519;-53
2023/04/08 04:20:58;;;;;;;33.03;22.02;;;4.00;99.90;;;;;;4994692;28;20041;-51
2023/04/08 04:23:24;;;;;;;28.08;20.30;;;4.00;99.90;;;;;;5009321;28;20036;-53
2023/04/08 04:25:50;;;;;;;35.13;21.02;;;4.00;99.90;;;;;;5011723;28;20076;-54
2023/04/08 04:28:16;;;;;;;27.50;20.58;;;4.00;99.90;;;;;;5010110;28;20077;-54
2023/04/08 04:30:42;;;;;;;32.28;22.00;;;3.90;99.90;;;;;;4995312;28;20573;-54
2023/04/08 04:33:07;;;;;;;30.25;20.88;;;3.90;99.90;;;;;;4997560;28;20052;-54
2023/04/08 04:35:33;;;;;;;33.45;22.48;;;3.90;99.90;;;;;;5010987;28;20119;-55
2023/04/08 04:37:59;;;;;;;34.40;23.52;;;3.90;99.90;;;;;;5013155;28;20052;-56
2023/04/08 04:40:25;;;;;;;32.42;23.27;;;4.00;99.90;;;;;;5010293;28;20450;-54
2023/04/08 04:42:50;;;;;;;33.03;21.25;;;3.90;99.90;;;;;;4995478;28;20080;-53
2023/04/08 04:45:16;;;;;;;30.38;21.38;;;4.00;99.90;;;;;;5008782;28;20091;-53
2023/04/08 04:47:42;;;;;;;34.45;23.27;;;4.00;99.90;;;;;;4999996;28;20042;-54
2023/04/08 04:50:08;;;;;;;29.65;21.15;;;3.90;99.90;;;;;;5013081;28;20072;-53
2023/04/08 04:52:35;;;;;;;32.50;22.58;;;3.90;99.90;;;;;;5018085;28;20049;-55
2023/04/08 04:55:01;;;;;;;37.38;22.90;;;3.90;99.90;;;;;;5020266;28;20041;-53
2023/04/08 04:57:27;;;;;;;33.58;21.75;;;3.90;99.90;;;;;;5039020;28;20372;-56
2023/04/08 04:59:52;;;;;;;31.77;22.27;;;3.90;99.90;;;;;;5035552;28;20067;-55
2023/04/08 05:02:18;;;;;;;36.33;22.33;;;3.90;99.90;;;;;;5012555;28;20123;-54
2023/04/08 05:04:44;;;;;;;31.67;21.73;;;3.90;99.90;;;;;;5013467;28;20067;-56
2023/04/08 05:07:09;;;;;;;28.73;20.88;;;3.90;99.90;;;;;;5014637;28;20060;-57
2023/04/08 05:09:35;;;;;;;35.85;23.08;;;3.90;99.90;;;;;;5016023;28;20071;-55
2023/04/08 05:12:01;;;;;;;32.15;23.08;;;3.90;99.90;;;;;;5013365;28;20480;-56
2023/04/08 05:14:29;;;;;;;26.77;19.75;;;3.90;99.90;;;;;;5010796;28;20041;-57
2023/04/08 05:16:56;;;;;;;31.25;20.58;;;4.00;99.90;;;;;;5026592;28;20522;-57
2023/04/08 05:19:21;;;;;;;29.33;20.02;;;3.90;99.90;;;;;;5016152;28;20048;-57
2023/04/08 05:21:47;;;;;;;32.78;22.52;;;3.90;99.90;;;;;;5014850;28;20037;-57
2023/04/08 05:24:13;;;;;;;31.90;21.27;;;3.90;99.90;;;;;;5016160;28;20036;-57
2023/04/08 05:26:39;;;;;;;33.15;22.30;;;4.00;99.90;;;;;;5010168;28;20485;-57
2023/04/08 05:29:04;;;;;;;30.42;21.75;;;4.00;99.90;;;;;;5023306;28;20045;-56
2023/04/08 05:31:30;;;;;;;30.88;21.25;;;4.00;99.90;;;;;;5008862;28;20455;-56
2023/04/08 05:33:56;;;;;;;35.33;22.35;;;4.00;99.90;;;;;;5032437;28;20041;-56
2023/04/08 05:36:22;;;;;;;33.85;23.88;;;4.10;99.90;;;;;;5010367;28;20408;-56
2023/04/08 05:38:47;;;;;;;32.10;21.90;;;4.10;99.90;;;;;;5011815;28;20040;-57
2023/04/08 05:41:13;;;;;;;30.23;22.13;;;4.10;99.90;;;;;;5007261;28;20117;-56
2023/04/08 05:43:39;;;;;;;33.30;22.40;;;4.10;99.90;;;;;;5029367;28;20103;-56
2023/04/08 05:46:06;;;;;;;29.15;21.35;;;4.20;99.90;;;;;;5028006;28;20128;-55
2023/04/08 05:48:32;;;;;;;29.40;21.35;;;4.20;99.90;;;;;;5032023;28;20088;-56
2023/04/08 05:50:58;;;;;;;36.65;22.88;;;4.30;99.90;;;;;;4996119;28;20072;-56
2023/04/08 05:53:24;;;;;;;32.55;23.95;;;4.30;99.90;;;;;;5012379;28;20044;-55
2023/04/08 05:55:50;;;;;;;37.83;25.67;;;4.30;99.90;;;;;;4994272;28;20049;-57
2023/04/08 05:58:16;;;;;;;38.92;25.13;;;4.40;99.90;;;;;;5017007;28;20743;-56
2023/04/08 06:00:42;;;;;;;41.42;26.63;;;4.40;99.90;;;;;;5010442;28;20049;-57
2023/04/08 06:03:07;;;;;;;32.60;24.17;;;4.50;99.90;;;;;;4995325;28;20182;-57
2023/04/08 06:05:33;;;;;;;31.35;22.67;;;4.60;99.90;;;;;;5025455;28;20049;-57
2023/04/08 06:07:59;;;;;;;31.45;22.30;;;4.60;99.90;;;;;;4996465;28;20494;-57
2023/04/08 06:10:25;;;;;;;29.65;22.13;;;4.70;99.90;;;;;;4988819;28;20037;-57
2023/04/08 06:12:50;;;;;;;36.50;24.48;;;4.70;99.90;;;;;;5020186;28;20424;-57
2023/04/08 06:15:16;;;;;;;32.20;23.15;;;4.80;99.90;;;;;;4992753;28;20073;-57
2023/04/08 06:17:42;;;;;;;36.35;22.58;;;4.90;99.90;;;;;;5014162;28;20194;-57
2023/04/08 06:20:08;;;;;;;31.58;22.77;;;4.90;99.90;;;;;;5014356;28;20048;-57
2023/04/08 06:22:35;;;;;;;34.67;21.42;;;5.00;99.90;;;;;;4993193;28;20038;-57
2023/04/08 06:25:02;;;;;;;37.25;25.63;;;5.10;99.90;;;;;;5010179;28;20037;-56
2023/04/08 06:27:27;;;;;;;33.75;24.58;;;5.10;99.90;;;;;;5009624;28;20053;-53
2023/04/08 06:29:54;;;;;;;31.70;22.85;;;5.10;99.90;;;;;;5010694;28;20037;-54
2023/04/08 06:32:20;;;;;;;36.22;24.08;;;5.20;99.90;;;;;;5026887;28;20052;-56
2023/04/08 06:34:47;;;;;;;33.33;23.80;;;5.20;99.90;;;;;;5001004;28;20169;-53
2023/04/08 06:37:13;;;;;;;32.90;22.92;;;5.10;99.90;;;;;;5011377;28;20041;-54
2023/04/08 06:39:38;;;;;;;34.25;22.45;;;5.20;99.90;;;;;;4993671;28;20041;-56
2023/04/08 06:42:05;;;;;;;36.83;24.80;;;5.20;99.90;;;;;;5005126;28;20488;-53
2023/04/08 06:44:30;;;;;;;37.15;25.17;;;5.20;99.90;;;;;;5012017;28;20049;-56
2023/04/08 06:46:56;;;;;;;31.70;22.88;;;5.20;99.90;;;;;;5008376;28;20049;-54
2023/04/08 06:49:22;;;;;;;35.95;24.27;;;5.30;99.90;;;;;;5009937;28;20041;-55
2023/04/08 06:51:48;;;;;;;32.70;23.17;;;5.30;99.90;;;;;;5005223;28;20061;-55
2023/04/08 06:54:14;;;;;;;31.95;22.75;;;5.40;99.90;;;;;;5023918;28;20037;-56
2023/04/08 06:56:39;;;;;;;32.78;22.95;;;5.50;99.90;;;;;;5004861;28;20268;-54
2023/04/08 06:59:05;;;;;;;38.22;27.15;;;5.50;99.90;;;;;;4995633;28;20127;-53
2023/04/08 07:01:31;;;;;;;45.97;31.35;;;5.60;99.90;;;;;;4988844;28;20726;-55
2023/04/08 07:03:57;;;;;;;49.20;32.83;;;5.70;99.90;;;;;;5009660;28;20025;-54
2023/04/08 07:06:23;;;;;;;63.05;43.88;;;5.70;99.90;;;;;;5017136;28;20049;-55
2023/04/08 07:08:49;;;;;;;72.47;50.75;;;5.70;99.90;;;;;;5025172;28;20484;-54
2023/04/08 07:11:15;;;;;;;69.18;46.38;;;5.70;99.90;;;;;;5001766;28;20037;-54
2023/04/08 07:13:41;;;;;;;66.30;46.38;;;5.80;99.90;;;;;;5007978;28;20491;-57
2023/04/08 07:16:07;;;;;;;60.30;43.13;;;5.80;99.90;;;;;;4990379;28;20034;-56
2023/04/08 07:18:32;;;;;;;59.50;40.63;;;5.90;99.90;;;;;;4988549;28;20516;-55
2023/04/08 07:20:59;;;;;;;63.53;42.75;;;6.00;99.90;;;;;;5001962;28;20451;-57
2023/04/08 07:23:26;;;;;;;55.22;38.80;;;6.10;99.90;;;;;;5019539;28;20063;-55
2023/04/08 07:25:52;;;;;;;47.92;33.97;;;6.10;99.90;;;;;;5004976;28;20052;-56
2023/04/08 07:28:19;;;;;;;44.67;32.03;;;6.20;99.90;;;;;;5021483;28;20037;-55
2023/04/08 07:30:45;;;;;;;57.97;38.33;;;6.30;99.90;;;;;;4988525;28;20048;-55
2023/04/08 07:33:11;;;;;;;56.03;37.58;;;6.40;99.90;;;;;;4988808;28;20055;-57
2023/04/08 07:35:37;;;;;;;55.22;37.90;;;6.60;99.90;;;;;;4992498;28;20049;-58
2023/04/08 07:38:03;;;;;;;49.22;34.83;;;6.80;99.90;;;;;;4988165;28;20053;-56
2023/04/08 07:40:29;;;;;;;46.92;33.03;;;6.90;99.90;;;;;;5022018;28;20538;-54
2023/04/08 07:42:55;;;;;;;46.60;33.58;;;7.00;99.90;;;;;;4993481;28;20037;-55
2023/04/08 07:45:21;;;;;;;47.55;32.70;;;7.10;99.90;;;;;;5007173;28;20275;-56
2023/04/08 07:47:47;;;;;;;48.80;32.85;;;7.10;99.90;;;;;;5005114;28;20061;-57
2023/04/08 07:50:12;;;;;;;46.50;32.25;;;7.00;99.90;;;;;;5000442;28;20133;-54
2023/04/08 07:52:38;;;;;;;42.88;29.73;;;7.00;99.90;;;;;;5008999;28;20333;-55
2023/04/08 07:55:04;;;;;;;40.20;27.27;;;6.90;99.90;;;;;;5005578;28;20045;-56
2023/04/08 07:57:31;;;;;;;35.58;24.83;;;6.90;99.90;;;;;;5002738;28;20045;-57
2023/04/08 07:59:56;;;;;;;33.45;24.33;;;6.90;99.90;;;;;;5012907;28;20049;-54
2023/04/08 08:02:22;;;;;;;33.30;23.52;;;7.00;99.90;;;;;;4978526;28;20729;-56
2023/04/08 08:04:48;;;;;;;35.17;23.23;;;7.10;99.90;;;;;;5020546;28;20041;-56
2023/04/08 08:07:15;;;;;;;30.70;21.52;;;7.20;99.90;;;;;;5013392;28;20041;-56
2023/04/08 08:09:40;;;;;;;30.33;19.98;;;7.50;99.90;;;;;;5012186;28;20048;-57
2023/04/08 08:12:06;;;;;;;26.70;19.52;;;7.60;99.90;;;;;;4992636;28;20492;-52
2023/04/08 08:14:32;;;;;;;25.40;19.20;;;7.70;99.90;;;;;;5009279;28;20037;-56
2023/04/08 08:16:57;;;;;;;24.60;17.95;;;7.80;99.90;;;;;;5006692;28;20595;-54
2023/04/08 08:19:23;;;;;;;25.77;18.48;;;7.90;99.90;;;;;;4998808;28;20291;-55
2023/04/08 08:21:49;;;;;;;26.00;17.88;;;8.00;99.90;;;;;;5017659;28;20088;-56
2023/04/08 08:24:16;;;;;;;22.60;16.05;;;8.00;99.90;;;;;;4986588;28;20033;-59
2023/04/08 08:26:44;;;;;;;19.15;14.30;;;8.00;99.90;;;;;;4983773;28;20291;-56
2023/04/08 08:29:09;;;;;;;18.73;14.15;;;8.00;99.90;;;;;;5021882;28;20045;-56
2023/04/08 08:31:35;;;;;;;16.80;12.50;;;8.00;99.90;;;;;;5001461;28;20392;-56
2023/04/08 08:34:01;;;;;;;15.75;12.45;;;8.00;99.90;;;;;;5024469;28;20530;-56
2023/04/08 08:36:27;;;;;;;15.68;10.70;;;8.00;99.90;;;;;;4998850;28;20046;-56
2023/04/08 08:38:53;;;;;;;14.63;10.57;;;8.00;99.90;;;;;;5004693;28;20052;-58
2023/04/08 08:41:20;;;;;;;16.75;11.05;;;8.10;99.90;;;;;;5004226;28;20045;-57
2023/04/08 08:43:46;;;;;;;15.68;10.45;;;8.10;99.90;;;;;;4988797;28;20072;-56
2023/04/08 08:46:16;;;;;;;12.80;10.05;;;8.20;99.90;;;;;;5003764;28;20046;-54
2023/04/08 08:48:42;;;;;;;13.02;9.70;;;8.30;99.90;;;;;;5005391;28;20053;-58
2023/04/08 08:51:13;;;;;;;13.50;10.63;;;8.40;99.90;;;;;;5002884;28;20044;-57
2023/04/08 08:53:43;;;;;;;12.98;10.40;;;8.40;99.90;;;;;;5008288;28;20136;-56
2023/04/08 08:56:09;;;;;;;15.68;10.00;;;8.40;99.90;;;;;;5004313;28;20038;-57
2023/04/08 08:58:36;;;;;;;12.73;9.95;;;8.50;99.90;;;;;;5001473;28;20522;-56
2023/04/08 09:01:01;;;;;;;12.43;9.90;;;8.50;99.90;;;;;;5002623;28;20049;-56
2023/04/08 09:03:27;;;;;;;14.10;11.13;;;8.50;99.90;;;;;;4999271;28;20212;-56
2023/04/08 09:05:58;;;;;;;16.05;11.27;;;8.60;99.90;;;;;;5023191;28;20128;-56
2023/04/08 09:08:27;;;;;;;14.80;10.65;;;8.60;99.90;;;;;;5000959;28;20056;-59
2023/04/08 09:11:11;;;;;;;16.15;11.65;;;8.70;99.90;;;;;;4995697;28;20496;-57
2023/04/08 09:13:37;;;;;;;16.95;11.68;;;8.70;99.90;;;;;;5011271;28;20053;-57
2023/04/08 09:16:06;;;;;;;15.18;11.27;;;8.80;99.90;;;;;;5001338;28;20095;-56
2023/04/08 09:18:32;;;;;;;16.30;11.40;;;8.80;99.90;;;;;;5008016;28;20496;-57
2023/04/08 09:21:02;;;;;;;15.55;11.90;;;8.80;99.90;;;;;;5022523;28;20073;-58
2023/04/08 09:23:43;;;;;;;14.23;11.10;;;8.80;99.90;;;;;;4986657;28;20037;-57
2023/04/08 09:26:11;;;;;;;18.00;11.98;;;8.80;99.90;;;;;;5024541;28;20145;-57
2023/04/08 09:28:38;;;;;;;13.80;10.93;;;8.80;99.90;;;;;;5024522;28;20048;-57
2023/04/08 09:31:23;;;;;;;17.02;11.93;;;8.70;99.90;;;;;;5003810;28;20037;-57
2023/04/08 09:33:52;;;;;;;14.63;11.80;;;8.70;99.90;;;;;;5010268;28;20049;-58
2023/04/08 09:36:18;;;;;;;18.45;12.52;;;8.70;99.90;;;;;;5024533;28;20099;-58
2023/04/08 09:38:44;;;;;;;17.15;12.30;;;8.60;99.90;;;;;;5011483;28;20126;-55
2023/04/08 09:41:16;;;;;;;15.50;11.43;;;8.60;99.90;;;;;;5031909;28;20052;-56
2023/04/08 09:43:48;;;;;;;14.98;11.50;;;8.60;99.90;;;;;;5009837;28;20042;-58
2023/04/08 09:46:15;;;;;;;17.92;11.88;;;8.60;99.90;;;;;;5009066;28;20059;-54
2023/04/08 09:49:06;;;;;;;17.23;12.05;;;8.50;99.90;;;;;;5026963;28;20063;-57
2023/04/08 09:51:39;;;;;;;19.60;11.77;;;8.40;99.90;;;;;;5023157;28;20578;-57
2023/04/08 09:54:12;;;;;;;15.82;12.10;;;8.50;99.90;;;;;;5028630;28;20052;-57
2023/04/08 09:56:57;;;;;;;15.68;12.48;;;8.50;99.90;;;;;;5006822;28;20049;-57
2023/04/08 09:59:26;;;;;;;16.17;12.30;;;8.60;99.90;;;;;;5024399;28;20049;-56
2023/04/08 10:01:55;;;;;;;17.92;12.68;;;8.70;99.90;;;;;;5022882;28;20147;-58
2023/04/08 10:04:23;;;;;;;16.45;12.50;;;8.70;99.90;;;;;;5008917;28;20103;-55
2023/04/08 10:06:56;;;;;;;19.33;11.68;;;8.70;99.90;;;;;;5050589;23;20067;-63
2023/04/08 10:09:22;;;;;;;17.45;12.95;;;8.70;99.90;;;;;;5012235;28;20127;-63
2023/04/08 10:11:49;;;;;;;16.48;12.60;;;8.80;99.90;;;;;;5008478;28;20103;-61
2023/04/08 10:14:15;;;;;;;14.40;11.30;;;8.80;99.90;;;;;;5033873;28;20072;-65
2023/04/08 10:16:41;;;;;;;18.63;12.00;;;8.70;99.90;;;;;;5031308;28;20103;-62
2023/04/08 10:19:37;;;;;;;18.35;12.75;;;8.70;99.90;;;;;;5029133;28;20038;-63
2023/04/08 10:22:03;;;;;;;14.93;11.43;;;8.70;99.90;;;;;;5007191;28;20065;-65
2023/04/08 10:24:29;;;;;;;16.45;11.68;;;8.70;99.90;;;;;;5013234;28;20492;-63
2023/04/08 10:26:55;;;;;;;16.02;12.20;;;8.80;99.90;;;;;;5000189;28;20049;-61
2023/04/08 10:29:29;;;;;;;15.15;11.70;;;8.80;99.90;;;;;;5013104;28;20255;-61
2023/04/08 10:31:56;;;;;;;;;;;8.80;99.90;;;;;;5000411;28;20041;-63
2023/04/08 10:34:26;;;;;;;15.48;11.63;;;8.70;99.90;;;;;;5002439;28;19927;-61
2023/04/08 10:36:54;;;;;;;17.42;12.63;;;8.70;99.90;;;;;;4992732;28;20092;-63
2023/04/08 10:39:20;;;;;;;17.77;13.50;;;8.70;99.90;;;;;;4991282;28;20329;-62
2023/04/08 10:41:50;;;;;;;17.58;13.05;;;8.80;99.90;;;;;;5022724;28;20049;-63
2023/04/08 10:44:20;;;;;;;20.33;13.80;;;8.90;99.90;;;;;;5000682;28;20140;-63
2023/04/08 10:46:47;;;;;;;17.58;11.70;;;8.90;99.90;;;;;;4991420;28;20038;-62
2023/04/08 10:49:14;;;;;;;18.05;13.07;;;8.90;99.90;;;;;;5004548;28;20029;-63
2023/04/08 10:51:43;;;;;;;17.75;12.73;;;9.00;99.90;;;;;;5010077;28;20060;-61
2023/04/08 10:54:13;;;;;;;16.08;11.60;;;9.00;99.90;;;;;;5015136;28;20043;-63
2023/04/08 10:56:51;;;;;;;19.42;12.63;;;9.10;99.90;;;;;;5000103;28;20061;-61
2023/04/08 10:59:28;;;;;;;17.02;11.68;;;9.10;99.90;;;;;;4986442;28;20484;-65
2023/04/08 11:01:54;;;;;;;15.88;12.02;;;9.10;99.90;;;;;;5004895;28;20060;-60
2023/04/08 11:04:22;;;;;;;18.35;13.90;;;9.10;99.90;;;;;;4986886;28;20358;-62
2023/04/08 11:06:49;;;;;;;17.75;13.07;;;9.10;99.90;;;;;;5001691;28;20036;-62
2023/04/08 11:09:18;;;;;;;16.90;11.80;;;9.10;99.90;;;;;;4997486;28;20447;-62
2023/04/08 11:11:45;;;;;;;17.17;13.07;;;9.10;99.90;;;;;;4987643;28;20121;-62
2023/04/08 11:14:12;;;;;;;17.00;12.18;;;9.10;99.90;;;;;;5010663;28;20037;-63
2023/04/08 11:16:39;;;;;;;16.08;11.68;;;9.10;99.90;;;;;;5006440;28;20374;-63
2023/04/08 11:19:06;;;;;;;17.20;12.30;;;9.20;99.90;;;;;;4982805;28;20029;-63
2023/04/08 11:21:35;;;;;;;16.92;12.20;;;9.20;99.90;;;;;;5000337;28;20041;-61
2023/04/08 11:24:04;;;;;;;15.35;12.13;;;9.30;99.90;;;;;;4999109;28;20135;-65
2023/04/08 11:26:30;;;;;;;14.75;11.00;;;9.30;99.90;;;;;;5015004;28;20077;-61
2023/04/08 11:28:57;;;;;;;16.33;12.05;;;9.40;99.90;;;;;;5003251;28;20049;-62
2023/04/08 11:31:23;;;;;;;15.48;11.52;;;9.40;99.90;;;;;;4982886;28;20056;-62
2023/04/08 11:33:52;;;;;;;15.68;11.95;;;9.40;99.90;;;;;;4986450;28;20500;-63
2023/04/08 11:36:20;;;;;;;17.15;11.57;;;9.40;99.90;;;;;;5006318;28;20092;-62
2023/04/08 11:38:46;;;;;;;19.25;13.02;;;9.40;99.90;;;;;;4993296;28;20049;-63
2023/04/08 11:41:13;;;;;;;18.20;12.60;;;9.40;99.90;;;;;;5002341;28;20508;-62
2023/04/08 11:43:39;;;;;;;17.15;11.90;;;9.50;99.90;;;;;;5004525;28;20045;-61
2023/04/08 11:46:12;;;;;;;17.33;12.32;;;9.50;99.90;;;;;;5008286;28;20108;-62
2023/04/08 11:48:38;;;;;;;19.58;13.23;;;9.50;99.90;;;;;;4990085;28;20503;-62
2023/04/08 11:51:08;;;;;;;18.17;13.52;;;9.70;99.90;;;;;;5003047;28;20037;-65
2023/04/08 11:53:37;;;;;;;20.95;13.18;;;9.70;99.90;;;;;;5006042;28;20068;-62
2023/04/08 11:56:20;;;;;;;22.98;14.13;;;9.70;99.90;;;;;;5019153;28;20056;-62
2023/04/08 11:58:46;;;;;;;18.92;13.75;;;9.80;99.90;;;;;;5009490;28;20049;-62
2023/04/08 12:01:12;;;;;;;22.75;13.68;;;9.80;99.90;;;;;;5006534;28;20037;-65
2023/04/08 12:03:38;;;;;;;23.48;15.05;;;9.80;99.90;;;;;;5007417;28;20064;-61
2023/04/08 12:06:06;;;;;;;27.40;16.00;;;9.90;99.90;;;;;;5010653;28;20037;-62
2023/04/08 12:08:32;;;;;;;25.67;16.92;;;9.90;99.90;;;;;;5002930;28;20029;-61
2023/04/08 12:10:57;;;;;;;27.27;17.52;;;9.80;99.90;;;;;;4987272;28;20504;-60
2023/04/08 12:13:23;;;;;;;30.58;18.10;;;9.80;99.90;;;;;;5003667;28;20045;-61
2023/04/08 12:15:49;;;;;;;28.20;17.75;;;9.80;99.90;;;;;;5023424;28;20103;-65
2023/04/08 12:18:15;;;;;;;30.00;18.90;;;9.80;99.90;;;;;;5005379;28;20072;-63
2023/04/08 12:20:41;;;;;;;25.67;17.33;;;9.70;99.90;;;;;;5000764;28;20038;-63
2023/04/08 12:23:07;;;;;;;27.65;19.70;;;9.70;99.90;;;;;;5004119;28;20127;-62
2023/04/08 12:25:32;;;;;;;26.60;17.67;;;9.70;99.90;;;;;;5005138;28;20489;-63
2023/04/08 12:27:58;;;;;;;29.88;18.58;;;9.80;99.90;;;;;;4999907;28;20045;-62
2023/04/08 12:30:24;;;;;;;29.73;19.15;;;9.70;99.90;;;;;;5019544;28;20182;-61
2023/04/08 12:32:50;;;;;;;28.55;18.13;;;9.70;99.90;;;;;;4988184;28;20036;-63
2023/04/08 12:35:15;;;;;;;28.73;18.90;;;9.70;99.90;;;;;;5004621;28;20475;-62
2023/04/08 12:37:41;;;;;;;30.95;19.80;;;9.70;99.90;;;;;;4985183;28;20303;-62
2023/04/08 12:40:07;;;;;;;29.45;19.27;;;9.60;99.90;;;;;;4994658;28;20501;-63